VAM | Vabird-VBD

Virtual Vabird! Aerolínea Virtual de habla hispana, desde 2011




 INFORMACIÓN METAR y TAF
METAR FOR LEBL
ADDS - METARS form results

(2110 UTC 21 January 2021)
Data provider http://aviationweather.gov/metar/data/
 
METAR text: LEBL 212100Z 24008KT 9999 FEW030 12/11 Q1009 NOSIG
Conditions at: LEBL (BARCELONA AIRPOR, ES) observed 2100 UTC 21 January 2021
Temperature: 12.0°C (54°F)
Dewpoint: 11.0°C (52°F) [RH = 94%]
Pressure (altimeter): 29.79 inches Hg (1009.0 mb)
Winds: from the WSW (240 degrees) at 9 MPH (8 knots; 4.1 m/s)
Visibility: 6 or more miles (10+ km)
Ceiling: at least 12,000 feet AGL
Clouds: few clouds at 3000 feet AGL
Weather: no significant weather observed at this time

METAR text: LEBL 212030Z 28006KT 9999 FEW030 12/11 Q1009 NOSIG
Conditions at: LEBL (BARCELONA AIRPOR, ES) observed 2030 UTC 21 January 2021
Temperature: 12.0°C (54°F)
Dewpoint: 11.0°C (52°F) [RH = 94%]
Pressure (altimeter): 29.79 inches Hg (1009.0 mb)
Winds: from the W (280 degrees) at 7 MPH (6 knots; 3.1 m/s)
Visibility: 6 or more miles (10+ km)
Ceiling: at least 12,000 feet AGL
Clouds: few clouds at 3000 feet AGL
Weather: no significant weather observed at this time

Forecast for: LEBL (BARCELONA AIRPOR, ES)
Text: TAF LEBL 211700Z 2118/2218 24010KT 9999 FEW030 TX16/2212Z TN09/2206Z
Forecast period: 1800 UTC 21 January 2021 to 1800 UTC 22 January 2021
Forecast type: FROM: standard forecast or significant change
Winds: from the WSW (240 degrees) at 12 MPH (10 knots; 5.1 m/s)
Visibility: 6 or more miles (10+ km)
Ceiling: at least 12,000 feet AGL
Clouds: few clouds at 3000 feet AGL
Weather: no significant weather forecast for this period
Text: BECMG 2118/2120 VRB03KT
Forecast period: 1800 UTC 21 January 2021 to 0500 UTC 22 January 2021
Forecast type: BECOMING: Conditions expected to become as follows by 2000 UTC 21 January 2021
Winds: variable direction winds at 3 MPH (3 knots; 1.5 m/s)
Visibility: 6 or more miles (10+ km)
Ceiling: at least 12,000 feet AGL
Clouds: few clouds at 3000 feet AGL
Weather: no significant weather forecast for this period
Text: BECMG 2205/2207 26018G30KT
Forecast period: 0500 to 1800 UTC 22 January 2021
Forecast type: BECOMING: Conditions expected to become as follows by 0700 UTC 22 January 2021
Winds: from the W (260 degrees) at 21 MPH (18 knots; 9.3 m/s)
gusting to 34 MPH (30 knots; 15.4 m/s)
Visibility: 6 or more miles (10+ km)
Ceiling: at least 12,000 feet AGL
Clouds: few clouds at 3000 feet AGL
Weather: no significant weather forecast for this period
Text: PROB40
Forecast period: 0800 to 1200 UTC 22 January 2021
Forecast type: TEMPORARY: The following changes expected for less than half the time period
Winds: from the W (270 degrees) at 25 MPH (22 knots; 11.3 m/s)
gusting to 40 MPH (35 knots; 18.0 m/s)
Visibility: 1.86 miles (2.99 km)
Ceiling: 4000 feet AGL
Clouds: few clouds at 3500 feet AGL
broken clouds at 4000 feet AGL
Weather: TSRA  (rain associated with thunderstorm(s))

 MAPA DE AEROPUERTO

 INFORMACIÓN DE PISTA